createdAt,value
2018-09-15T00:00:53.991Z,24.60
2018-09-15T00:03:21.486Z,24.53
2018-09-15T00:05:49.479Z,24.60
2018-09-15T00:08:16.967Z,24.58
2018-09-15T00:10:44.728Z,24.63
2018-09-15T00:13:12.835Z,24.62
2018-09-15T00:15:40.588Z,24.61
2018-09-15T00:18:11.847Z,24.60
2018-09-15T00:20:39.759Z,24.59
2018-09-15T00:23:08.077Z,24.58
2018-09-15T00:25:35.860Z,24.57
2018-09-15T00:28:03.575Z,24.56
2018-09-15T00:30:31.408Z,24.57
2018-09-15T00:32:58.971Z,24.54
2018-09-15T00:35:26.603Z,24.56
2018-09-15T00:37:54.583Z,24.56
2018-09-15T00:40:22.177Z,24.55
2018-09-15T00:42:49.783Z,24.56
2018-09-15T00:45:17.483Z,24.57
2018-09-15T00:47:44.593Z,24.55
2018-09-15T00:50:12.310Z,24.54
2018-09-15T00:52:40.027Z,24.55
2018-09-15T00:55:07.899Z,24.55
2018-09-15T00:57:35.658Z,24.54
2018-09-15T01:00:04.545Z,24.53
2018-09-15T01:02:32.379Z,24.54
2018-09-15T01:04:59.935Z,24.54
2018-09-15T01:07:27.570Z,24.53
2018-09-15T01:09:55.434Z,24.51
2018-09-15T01:12:29.520Z,24.52
2018-09-15T01:14:57.166Z,24.50
2018-09-15T01:17:24.726Z,24.52
2018-09-15T01:19:51.889Z,24.50
2018-09-15T01:22:19.726Z,24.52
2018-09-15T01:24:47.475Z,24.50
2018-09-15T01:27:15.031Z,24.50
2018-09-15T01:29:42.898Z,24.50
2018-09-15T01:32:10.590Z,24.48
2018-09-15T01:34:38.478Z,24.50
2018-09-15T01:37:06.886Z,24.49
2018-09-15T01:39:35.063Z,24.48
2018-09-15T01:42:03.062Z,24.47
2018-09-15T01:44:30.867Z,24.48
2018-09-15T01:46:58.575Z,24.47
2018-09-15T01:49:26.507Z,24.44
2018-09-15T01:51:54.206Z,24.45
2018-09-15T01:54:22.180Z,24.46
2018-09-15T01:56:49.959Z,24.44
2018-09-15T01:59:17.743Z,24.45
2018-09-15T02:01:45.546Z,24.43
2018-09-15T02:04:13.164Z,24.44
2018-09-15T02:06:40.823Z,24.45
2018-09-15T02:09:11.030Z,24.42
2018-09-15T02:11:38.410Z,24.43
2018-09-15T02:14:06.023Z,24.43
2018-09-15T02:16:33.887Z,24.43
2018-09-15T02:19:01.746Z,24.43
2018-09-15T02:21:29.490Z,24.42
2018-09-15T02:23:57.818Z,24.43
2018-09-15T02:27:54.790Z,24.41
2018-09-15T02:30:22.614Z,24.41
2018-09-15T02:32:50.430Z,24.41
2018-09-15T02:35:18.295Z,24.42
2018-09-15T02:37:45.886Z,24.40
2018-09-15T02:40:13.867Z,24.39
2018-09-15T02:42:41.570Z,24.38
2018-09-15T02:45:09.439Z,24.38
2018-09-15T02:47:37.054Z,24.37
2018-09-15T02:50:05.759Z,24.37
2018-09-15T02:52:33.570Z,24.35
2018-09-15T02:55:01.197Z,24.35
2018-09-15T02:57:28.876Z,24.33
2018-09-15T02:59:56.577Z,24.31
2018-09-15T03:02:24.204Z,24.32
2018-09-15T03:04:51.971Z,24.33
2018-09-15T03:07:19.902Z,24.32
2018-09-15T03:09:47.611Z,24.31
2018-09-15T03:12:15.354Z,24.31
2018-09-15T03:14:43.035Z,24.32
2018-09-15T03:17:10.879Z,24.31
2018-09-15T03:19:38.610Z,24.30
2018-09-15T03:22:06.176Z,24.28
2018-09-15T03:24:34.440Z,24.30
2018-09-15T03:27:02.040Z,24.29
2018-09-15T03:29:30.023Z,24.28
2018-09-15T03:31:57.736Z,24.30
2018-09-15T03:34:25.513Z,24.27
2018-09-15T03:36:53.042Z,24.26
2018-09-15T03:39:20.749Z,24.25
2018-09-15T03:41:48.585Z,24.26
2018-09-15T03:44:16.219Z,24.26
2018-09-15T03:46:43.731Z,24.26
2018-09-15T03:49:11.438Z,24.26
2018-09-15T03:54:21.726Z,24.26
2018-09-15T03:56:50.294Z,24.25
2018-09-15T03:59:17.971Z,24.24
2018-09-15T04:01:46.383Z,24.24
2018-09-15T04:06:09.549Z,24.25
2018-09-15T04:08:37.166Z,24.23
2018-09-15T04:11:04.734Z,24.20
2018-09-15T04:13:31.876Z,24.20
2018-09-15T04:15:59.732Z,24.22
2018-09-15T04:18:27.546Z,24.20
2018-09-15T04:20:55.494Z,24.20
2018-09-15T04:23:23.176Z,24.20
2018-09-15T04:25:50.974Z,24.19
2018-09-15T04:28:18.759Z,24.17
2018-09-15T04:30:45.982Z,24.18
2018-09-15T04:33:13.662Z,24.18
2018-09-15T04:35:41.410Z,24.17
2018-09-15T04:38:09.011Z,24.17
2018-09-15T04:40:36.887Z,24.14
2018-09-15T04:43:04.031Z,24.16
2018-09-15T04:45:31.385Z,24.16
2018-09-15T04:47:58.976Z,24.15
2018-09-15T04:50:26.722Z,24.16
2018-09-15T04:52:54.475Z,24.16
2018-09-15T04:55:22.214Z,24.14
2018-09-15T04:57:49.979Z,24.16
2018-09-15T05:00:17.426Z,24.05
2018-09-15T05:02:44.992Z,24.13
2018-09-15T05:05:12.627Z,24.05
2018-09-15T05:07:40.464Z,24.13
2018-09-15T05:10:08.198Z,24.13
2018-09-15T05:12:35.901Z,24.11
2018-09-15T05:15:03.573Z,24.12
2018-09-15T05:17:30.686Z,24.12
2018-09-15T05:19:58.410Z,24.14
2018-09-15T05:22:26.300Z,24.13
2018-09-15T05:24:53.959Z,24.10
2018-09-15T05:27:21.883Z,24.13
2018-09-15T05:29:49.582Z,24.19
2018-09-15T05:32:17.390Z,24.17
2018-09-15T05:34:44.575Z,24.18
2018-09-15T05:37:12.329Z,24.20
2018-09-15T05:39:39.919Z,24.18
2018-09-15T05:42:08.636Z,24.20
2018-09-15T05:44:36.507Z,24.16
2018-09-15T05:47:04.571Z,24.15
2018-09-15T05:49:31.826Z,24.14
2018-09-15T05:51:59.552Z,24.13
2018-09-15T05:54:27.374Z,24.14
2018-09-15T05:56:55.019Z,24.13
2018-09-15T05:59:22.827Z,24.13
2018-09-15T06:01:50.666Z,24.12
2018-09-15T06:04:18.417Z,24.10
2018-09-15T06:06:45.991Z,24.01
2018-09-15T06:09:13.842Z,24.12
2018-09-15T06:11:42.011Z,24.11
2018-09-15T06:14:09.170Z,24.10
2018-09-15T06:16:36.891Z,24.10
2018-09-15T06:19:06.295Z,24.10
2018-09-15T06:21:34.033Z,24.12
2018-09-15T06:24:01.943Z,24.14
2018-09-15T06:26:33.418Z,24.12
2018-09-15T06:29:01.067Z,24.14
2018-09-15T06:31:28.999Z,24.15
2018-09-15T06:33:56.738Z,24.14
2018-09-15T06:36:24.686Z,24.15
2018-09-15T06:38:52.523Z,24.16
2018-09-15T06:41:20.198Z,24.17
2018-09-15T06:43:48.022Z,23.43
2018-09-15T06:46:15.523Z,24.22
2018-09-15T06:48:43.395Z,24.23
2018-09-15T06:51:11.933Z,24.26
2018-09-15T06:53:40.098Z,24.28
2018-09-15T06:56:07.824Z,24.27
2018-09-15T06:58:35.540Z,24.25
2018-09-15T07:01:03.146Z,24.23
2018-09-15T07:03:30.382Z,24.27
2018-09-15T07:05:58.443Z,24.29
2018-09-15T07:08:25.999Z,24.29
2018-09-15T07:10:53.698Z,24.22
2018-09-15T07:13:21.583Z,24.40
2018-09-15T07:15:49.390Z,24.38
2018-09-15T07:18:16.995Z,24.39
2018-09-15T07:20:44.754Z,24.42
2018-09-15T07:23:12.518Z,24.43
2018-09-15T07:27:27.010Z,24.45
2018-09-15T07:29:54.746Z,24.45
2018-09-15T07:32:22.018Z,24.47
2018-09-15T07:34:49.794Z,24.45
2018-09-15T07:37:17.499Z,24.50
2018-09-15T07:39:45.392Z,24.52
2018-09-15T07:42:13.019Z,24.51
2018-09-15T07:44:40.849Z,24.55
2018-09-15T07:47:08.570Z,24.54
2018-09-15T07:49:36.395Z,24.58
2018-09-15T07:52:03.990Z,24.62
2018-09-15T07:54:31.870Z,24.56
2018-09-15T07:57:43.104Z,24.55
2018-09-15T08:00:10.795Z,24.60
2018-09-15T08:02:38.556Z,24.58
2018-09-15T08:05:06.352Z,24.59
2018-09-15T08:07:34.011Z,24.64
2018-09-15T08:10:01.847Z,24.60
2018-09-15T08:12:29.574Z,24.62
2018-09-15T08:14:57.435Z,24.69
2018-09-15T08:17:25.014Z,24.69
2018-09-15T08:19:52.647Z,24.73
2018-09-15T08:22:20.471Z,24.71
2018-09-15T08:24:48.028Z,24.71
2018-09-15T08:27:15.298Z,24.78
2018-09-15T08:29:42.882Z,24.73
2018-09-15T08:32:10.676Z,24.75
2018-09-15T08:34:38.355Z,24.81
2018-09-15T08:37:05.539Z,24.78
2018-09-15T08:39:33.194Z,24.79
2018-09-15T08:42:00.963Z,24.81
2018-09-15T08:44:28.751Z,24.81
2018-09-15T08:49:28.015Z,24.84
2018-09-15T08:51:55.743Z,24.87
2018-09-15T08:54:22.977Z,24.86
2018-09-15T08:56:50.739Z,24.88
2018-09-15T08:59:18.546Z,24.87
2018-09-15T09:01:46.176Z,24.90
2018-09-15T09:04:13.967Z,24.91
2018-09-15T09:06:41.148Z,24.96
2018-09-15T09:09:10.495Z,24.97
2018-09-15T09:11:38.200Z,24.96
2018-09-15T09:14:05.815Z,24.99
2018-09-15T09:16:33.747Z,24.95
2018-09-15T09:19:01.532Z,25.02
2018-09-15T09:21:29.298Z,25.00
2018-09-15T09:23:56.958Z,24.98
2018-09-15T09:26:24.921Z,24.98
2018-09-15T09:28:52.735Z,24.98
2018-09-15T09:31:20.654Z,24.99
2018-09-15T09:33:48.615Z,25.05
2018-09-15T09:36:16.199Z,25.03
2018-09-15T09:38:43.526Z,25.04
2018-09-15T09:41:11.183Z,25.08
2018-09-15T09:43:38.896Z,25.08
2018-09-15T09:46:06.642Z,25.12
2018-09-15T09:48:34.420Z,25.09
2018-09-15T09:51:02.072Z,25.11
2018-09-15T09:53:29.814Z,25.10
2018-09-15T09:55:57.594Z,25.04
2018-09-15T09:58:25.419Z,25.04
2018-09-15T10:01:03.636Z,24.98
2018-09-15T10:03:31.779Z,24.87
2018-09-15T10:05:59.720Z,24.83
2018-09-15T10:08:27.356Z,24.80
2018-09-15T10:10:55.003Z,24.83
2018-09-15T10:13:22.179Z,24.80
2018-09-15T10:15:49.871Z,24.77
2018-09-15T10:18:17.579Z,24.71
2018-09-15T10:20:45.414Z,24.69
2018-09-15T10:23:12.586Z,24.58
2018-09-15T10:25:40.360Z,24.53
2018-09-15T10:28:07.963Z,24.56
2018-09-15T10:30:35.999Z,24.53
2018-09-15T10:33:03.723Z,24.52
2018-09-15T10:35:31.467Z,24.50
2018-09-15T10:37:59.085Z,24.52
2018-09-15T10:40:26.926Z,24.47
2018-09-15T10:42:54.578Z,24.44
2018-09-15T10:45:22.300Z,24.38
2018-09-15T10:47:49.895Z,24.35
2018-09-15T10:50:17.856Z,24.44
2018-09-15T10:52:45.593Z,24.43
2018-09-15T10:56:03.011Z,24.40
2018-09-15T10:58:30.730Z,24.47
2018-09-15T11:00:58.572Z,24.44
2018-09-15T11:03:26.355Z,24.43
2018-09-15T11:05:54.052Z,24.40
2018-09-15T11:08:21.833Z,24.40
2018-09-15T11:10:49.566Z,24.35
2018-09-15T11:13:17.237Z,24.42
2018-09-15T11:15:44.763Z,24.30
2018-09-15T11:18:12.595Z,24.30
2018-09-15T11:20:40.754Z,24.28
2018-09-15T11:23:08.495Z,24.19
2018-09-15T11:25:36.458Z,24.12
2018-09-15T11:28:04.190Z,24.15
2018-09-15T11:30:31.725Z,24.20
2018-09-15T11:32:59.464Z,24.19
2018-09-15T11:35:27.031Z,24.22
2018-09-15T11:38:04.299Z,24.17
2018-09-15T11:40:31.927Z,24.16
2018-09-15T11:42:59.615Z,24.16
2018-09-15T11:45:27.297Z,24.16
2018-09-15T11:47:54.526Z,24.14
2018-09-15T11:50:22.426Z,24.11
2018-09-15T11:52:50.062Z,24.00
2018-09-15T11:55:18.127Z,24.10
2018-09-15T11:57:45.897Z,24.07
2018-09-15T12:00:16.739Z,24.02
2018-09-15T12:02:44.635Z,24.02
2018-09-15T12:05:12.443Z,24.03
2018-09-15T12:07:40.096Z,23.99
2018-09-15T12:10:07.743Z,23.96
2018-09-15T12:12:35.599Z,23.95
2018-09-15T12:15:03.480Z,23.95
2018-09-15T12:17:31.410Z,23.95
2018-09-15T12:19:59.060Z,23.96
2018-09-15T12:22:26.827Z,23.93
2018-09-15T12:24:54.586Z,23.89
2018-09-15T12:27:22.157Z,23.92
2018-09-15T12:29:49.819Z,23.90
2018-09-15T12:32:17.587Z,23.90
2018-09-15T12:34:45.303Z,23.92
2018-09-15T12:37:12.959Z,23.90
2018-09-15T12:39:40.635Z,23.89
2018-09-15T12:42:08.647Z,23.90
2018-09-15T12:44:36.423Z,23.89
2018-09-15T12:47:04.008Z,23.89
2018-09-15T12:49:31.814Z,23.91
2018-09-15T12:51:59.213Z,23.89
2018-09-15T12:54:26.982Z,23.84
2018-09-15T12:56:54.655Z,23.80
2018-09-15T12:59:22.635Z,23.82
2018-09-15T13:01:50.442Z,23.84
2018-09-15T13:04:18.031Z,23.86
2018-09-15T13:06:45.818Z,23.86
2018-09-15T13:09:13.527Z,23.85
2018-09-15T13:11:41.071Z,23.83
2018-09-15T13:14:08.956Z,23.82
2018-09-15T13:16:36.933Z,23.79
2018-09-15T13:19:04.722Z,23.79
2018-09-15T13:21:32.607Z,23.74
2018-09-15T13:24:00.303Z,23.71
2018-09-15T13:26:28.022Z,23.69
2018-09-15T13:28:55.528Z,23.73
2018-09-15T13:31:23.718Z,23.74
2018-09-15T13:33:51.688Z,23.75
2018-09-15T13:36:19.432Z,23.69
2018-09-15T13:38:47.007Z,23.69
2018-09-15T13:41:14.707Z,23.74
2018-09-15T13:43:42.456Z,23.78
2018-09-15T13:46:10.031Z,23.68
2018-09-15T13:48:37.363Z,23.69
2018-09-15T13:51:05.393Z,23.68
2018-09-15T13:53:33.034Z,23.66
2018-09-15T13:56:00.835Z,23.68
2018-09-15T13:58:28.856Z,23.74
2018-09-15T14:00:56.710Z,23.71
2018-09-15T14:03:24.791Z,23.71
2018-09-15T14:05:52.554Z,23.75
2018-09-15T14:08:20.244Z,23.69
2018-09-15T14:10:48.083Z,23.71
2018-09-15T14:13:15.638Z,23.63
2018-09-15T14:15:43.544Z,23.70
2018-09-15T14:18:11.201Z,23.68
2018-09-15T14:20:38.911Z,23.67
2018-09-15T14:23:06.591Z,23.72
2018-09-15T14:25:34.187Z,23.73
2018-09-15T14:28:01.987Z,23.66
2018-09-15T14:30:29.710Z,23.64
2018-09-15T14:32:57.422Z,23.71
2018-09-15T14:35:25.069Z,23.63
2018-09-15T14:37:52.939Z,23.68
2018-09-15T14:40:20.615Z,23.73
2018-09-15T14:42:48.392Z,23.76
2018-09-15T14:45:16.056Z,23.75
2018-09-15T14:47:43.844Z,23.77
2018-09-15T14:50:11.609Z,23.80
2018-09-15T14:52:39.551Z,23.77
2018-09-15T14:55:07.266Z,23.79
2018-09-15T14:57:34.967Z,23.81
2018-09-15T15:00:02.627Z,23.78
2018-09-15T15:02:30.598Z,23.79
2018-09-15T15:04:58.311Z,23.78
2018-09-15T15:07:26.052Z,23.77
2018-09-15T15:09:53.983Z,23.79
2018-09-15T15:12:21.836Z,23.80
2018-09-15T15:14:49.037Z,23.81
2018-09-15T15:17:16.854Z,23.83
2018-09-15T15:19:44.648Z,23.81
2018-09-15T15:22:12.471Z,23.79
2018-09-15T15:24:40.599Z,23.81
2018-09-15T15:27:08.306Z,23.79
2018-09-15T15:29:35.963Z,23.78
2018-09-15T15:32:03.655Z,23.80
2018-09-15T15:34:31.402Z,23.79
2018-09-15T15:36:58.955Z,23.81
2018-09-15T15:42:10.080Z,23.83
2018-09-15T15:44:37.726Z,23.83
2018-09-15T15:47:05.867Z,23.83
2018-09-15T15:49:33.822Z,23.82
2018-09-15T15:52:01.599Z,23.84
2018-09-15T15:54:29.294Z,23.80
2018-09-15T15:56:56.559Z,23.77
2018-09-15T15:59:24.661Z,23.78
2018-09-15T16:01:52.350Z,23.79
2018-09-15T16:04:21.045Z,23.81
2018-09-15T16:06:48.891Z,23.82
2018-09-15T16:09:16.729Z,23.80
2018-09-15T16:11:44.013Z,23.79
2018-09-15T16:14:11.671Z,23.79
2018-09-15T16:16:39.307Z,23.77
2018-09-15T16:19:07.062Z,23.78
2018-09-15T16:21:34.747Z,23.76
2018-09-15T16:24:01.913Z,23.77
2018-09-15T16:26:29.772Z,23.78
2018-09-15T16:28:57.522Z,23.76
2018-09-15T22:41:49.575Z,24.40
2018-09-15T22:44:16.707Z,24.25
2018-09-15T22:46:44.380Z,24.26
2018-09-15T23:11:10.168Z,24.10
2018-09-15T23:13:37.765Z,24.15
2018-09-15T23:16:05.593Z,24.08
2018-09-15T23:18:33.774Z,24.00
2018-09-15T23:21:01.597Z,23.99
2018-09-15T23:23:29.523Z,24.01
2018-09-15T23:25:57.438Z,24.04
2018-09-15T23:28:25.314Z,24.04
2018-09-15T23:30:53.071Z,24.05
2018-09-15T23:33:20.950Z,24.03
2018-09-15T23:35:48.897Z,24.00
2018-09-15T23:38:17.734Z,24.03
2018-09-15T23:40:45.647Z,23.98
2018-09-15T23:43:13.585Z,23.99
2018-09-15T23:45:41.562Z,24.03
2018-09-15T23:48:08.694Z,24.00
2018-09-15T23:50:36.560Z,23.96
2018-09-15T23:53:04.398Z,23.92
2018-09-15T23:55:31.741Z,23.92
2018-09-15T23:57:59.562Z,23.89
